Terminal Aerodrome Forecast
Issued by NWS

Home | Current Version | Previous Version | Text Only | Print | Product List | Glossary Off
Versions: 1 2 3 4 5 6 7 8 9 10 11 12 13 14 15 16 17 18 19

000
FTUS43 KBIS 261134
TAFDIK
TAF
KDIK 261134Z 2612/2712 03005KT 1SM BR OVC002
      TEMPO 2612/2615 1/4SM FG OVC001
     FM261600 06009KT P6SM OVC006
     FM262000 07010KT P6SM OVC012
     FM270000 06009KT 3SM -RA BR OVC006
     FM270600 04007KT 2SM -RA BR OVC003=

USA.gov is the U.S. government's official web portal to all federal, state and local government web resources and services.